Ada, Michigan
Current Conditions -  °F | °C
As of 4:53 PM on Monday 24 Nov 2014 (Local Time) from KGRR Reporting Station
Light Snow Light Snow  
Wind Chill: 22°   Ceiling: 1300
Heat Index: 35°   Visibility: 9mi
Dew Point: 33°   Wind: 28mph
Humidity: 92%   Direction: 230°SW
Pressure: 29.39"   Gusts: 44mph
Location:  42.95°N, 85.49°W
Report Text: KGRR 242153Z 23024G38KT 9SM -SN BR OVC013 02/01 A2939 RMK AO2 PK WND 23038/2150 SLP957 P0000 T00170006 $
Loading
Personal Weather Stations






























Interactive Weather Map New forecast layout! Learn more

10-Day Weather Forecast

Advertisements
Track Severe Weather on mobile